Latest Weather Observations for Giles*

IDD60801

Issued at 6:01 pm CST Friday 20 October 2017 (issued every 30 minutes, with the page automatically refreshed every 10 minutes)

About weather observations | Map of weather stations | Latest weather observations for NT | Other Formats
Station Details ID: 013017 Name: GILES METEOROLOGICAL OFFICE Lat: -25.03 Lon: 128.30 Height: 598.0 m
Data from the previous 72 hours. | See also: Recent months at Giles*

* Giles observations are collected in the South Australia time zone, which includes daylight saving in the summer period. Therefore, Rain since 9am value is with respect to South Australia local time.

Date/Time
CST
Temp
°C
App
Temp
°C
Dew
Point
°C
Rel
Hum
%
Delta-T
°C
Wind Press
QNH
hPa
Press
MSL
hPa
Rain since
9am
mm
Dir  Spd
km/h
Gust
km/h
Spd
kts
Gust
kts
20/05:30pm 32.6 27.9 7.9 21 14.0 ESE 22 33 12 18 1020.0 1016.6 0.0
20/05:00pm 32.9 28.9 8.2 21 14.1 SE 19 30 10 16 1019.9 1016.5 0.0
20/04:30pm 33.2 29.0 8.1 21 14.3 SE 20 32 11 17 1020.0 1016.6 0.0
20/04:00pm 33.8 29.9 8.7 21 14.5 ESE 19 30 10 16 1020.0 1016.6 0.0
20/03:30pm 33.1 29.5 8.2 21 14.2 SE 17 28 9 15 1020.3 1016.9 0.0
20/03:00pm 33.2 30.9 9.0 22 14.0 SE 11 24 6 13 1020.5 1017.1 0.0
20/02:30pm 32.7 29.2 8.6 22 13.8 E 17 26 9 14 1021.0 1017.6 0.0
20/02:00pm 32.5 29.4 8.8 23 13.6 ENE 15 26 8 14 1021.2 1017.8 0.0
20/01:30pm 31.7 28.4 9.6 25 12.8 NE 17 28 9 15 1021.5 1018.1 0.0
20/01:00pm 31.2 27.4 9.0 25 12.7 ESE 19 30 10 16 1021.8 1018.4 0.0
20/12:30pm 30.2 26.5 9.5 27 11.9 E 19 30 10 16 1022.3 1019.0 0.0
20/12:00pm 29.9 26.0 9.5 28 11.7 ENE 20 32 11 17 1022.4 1019.1 0.0
20/11:30am 29.6 25.2 9.0 27 11.7 E 22 33 12 18 1022.8 1019.4 0.0
20/11:00am 28.9 23.4 9.2 29 11.2 E 28 43 15 23 1022.8 1019.4 0.0
20/10:30am 27.7 23.0 9.3 31 10.4 E 24 35 13 19 1023.2 1019.8 0.0
20/10:00am 26.6 20.7 8.9 32 9.9 E 30 43 16 23 1023.1 1019.7 0.0
20/09:30am 24.6 18.3 8.9 37 8.7 E 32 46 17 25 1023.2 1019.8 0.0
20/09:18am 24.6 18.9 8.4 35 8.9 E 28 46 15 25 1023.2 1019.8 0.0
20/09:00am 23.7 18.0 8.3 37 8.4 ESE 28 39 15 21 1023.1 1019.7 0.0
20/08:30am 21.5 16.4 7.6 40 7.4 SE 24 37 13 20 1022.9 1019.5 0.0
20/08:20am 20.8 14.3 8.3 44 6.7 E 32 50 17 27 1022.5 1019.2 0.0
20/08:00am 21.9 14.3 5.8 35 8.3 ESE 35 52 19 28 1022.8 1019.4 0.0
20/07:32am 21.4 13.0 5.6 35 8.1 ESE 39 57 21 31 1021.9 1018.5 0.0
20/07:30am 21.2 12.3 5.3 35 8.1 ESE 41 57 22 31 1022.0 1018.6 0.0
20/07:24am 21.1 12.7 5.4 36 8.0 ESE 39 57 21 31 1021.9 1018.5 0.0
20/07:00am 20.3 13.2 5.3 37 7.6 ESE 32 43 17 23 1021.8 1018.4 0.0
20/06:30am 19.7 12.4 4.6 37 7.5 ESE 32 48 17 26 1021.4 1018.0 0.0
20/06:00am 19.8 14.0 4.2 35 7.7 ESE 24 33 13 18 1021.6 1018.2 0.0
20/05:30am 20.1 14.3 4.4 35 7.8 SE 24 32 13 17 1022.0 1018.6 0.0
20/05:00am 20.1 15.3 4.9 37 7.6 SE 19 28 10 15 1021.6 1018.2 0.0
20/04:30am 19.9 13.7 6.3 41 7.0 SE 28 39 15 21 1020.5 1017.1 0.0
20/04:23am 19.9 12.4 6.3 41 7.0 SE 35 52 19 28 1020.3 1016.9 0.0
20/04:10am 18.9 13.2 8.4 50 5.6 SE 28 50 15 27 1019.9 1016.5 0.0
20/04:00am 20.1 15.9 8.1 46 6.4 ESE 20 28 11 15 1021.1 1017.7 0.0
20/03:30am 21.9 16.2 5.0 33 8.6 SE 24 35 13 19 1021.0 1017.6 0.0
20/03:00am 22.0 15.5 4.9 32 8.7 ESE 28 43 15 23 1019.8 1016.4 0.0
20/02:30am 22.3 15.2 5.6 33 8.6 ESE 32 44 17 24 1019.9 1016.5 0.0
20/02:00am 22.5 16.3 6.2 34 8.5 SE 28 39 15 21 1020.5 1017.1 0.0
20/01:30am 22.7 17.3 6.5 35 8.5 SE 24 35 13 19 1021.0 1017.6 0.0
20/01:00am 22.9 17.6 6.8 35 8.5 SE 24 33 13 18 1021.1 1017.7 0.0
20/12:30am 23.0 17.4 7.2 36 8.4 SE 26 35 14 19 1021.2 1017.8 0.0
20/12:00am 23.5 17.2 7.5 35 8.6 SE 30 37 16 20 1021.3 1017.9 0.0
 
Date/Time
CST
Temp
°C
App
Temp
°C
Dew
Point
°C
Rel
Hum
%
Delta-T
°C
Wind Press
QNH
hPa
Press
MSL
hPa
Rain since
9am
mm
Dir  Spd
km/h
Gust
km/h
Spd
kts
Gust
kts
19/11:30pm 23.8 17.6 7.7 35 8.7 SE 30 43 16 23 1021.4 1018.0 0.0
19/11:00pm 24.1 18.2 7.6 34 8.9 SE 28 44 15 24 1021.4 1018.0 0.0
19/10:30pm 24.4 18.1 7.6 34 9.1 SE 30 43 16 23 1021.4 1018.0 0.0
19/10:02pm 24.7 18.8 7.5 33 9.3 SE 28 46 15 25 1021.1 1017.7 0.0
19/10:00pm 24.8 18.5 7.4 33 9.4 SE 30 46 16 25 1021.1 1017.7 0.0
19/09:37pm 25.2 18.8 7.0 31 9.8 SE 30 48 16 26 1020.6 1017.2 0.0
19/09:30pm 25.1 19.2 7.3 32 9.6 SE 28 44 15 24 1020.6 1017.2 0.0
19/09:00pm 25.8 19.0 7.1 30 10.1 SE 32 43 17 23 1020.1 1016.7 0.0
19/08:30pm 26.3 19.9 7.1 29 10.4 SE 30 46 16 25 1019.8 1016.4 0.0
19/08:16pm 26.6 19.8 7.1 29 10.6 SSE 32 50 17 27 1019.6 1016.2 0.0
19/08:00pm 26.8 20.0 7.1 28 10.7 SSE 32 41 17 22 1019.3 1015.9 0.0
19/07:30pm 27.5 20.6 7.2 27 11.1 SSE 33 48 18 26 1018.6 1015.2 0.0
19/07:00pm 28.2 21.5 7.5 27 11.4 SSE 32 50 17 27 1018.0 1014.6 0.0
19/06:56pm 28.3 21.6 7.4 26 11.5 SSE 32 50 17 27 1018.0 1014.6 0.0
19/06:30pm 29.2 22.0 7.6 25 12.0 SSE 35 52 19 28 1017.5 1014.0 0.0
19/06:02pm 30.0 22.7 7.3 24 12.6 SSE 35 54 19 29 1016.9 1013.5 0.0
19/06:00pm 30.1 22.9 7.5 24 12.6 SSE 35 50 19 27 1016.9 1013.5 0.0
19/05:30pm 31.2 24.3 7.4 22 13.3 SSE 33 50 18 27 1016.5 1013.1 0.0
19/05:00pm 31.9 25.2 7.5 22 13.7 SSE 32 46 17 25 1016.3 1012.9 0.0
19/04:30pm 32.1 25.5 7.6 21 13.8 SE 32 46 17 25 1016.2 1012.8 0.0
19/04:00pm 32.7 26.6 8.4 22 13.9 SSE 30 44 16 24 1016.3 1012.9 0.0
19/03:30pm 32.3 26.1 8.0 22 13.8 SSE 30 44 16 24 1016.4 1013.0 0.0
19/03:00pm 31.9 26.2 8.4 23 13.4 SSE 28 44 15 24 1016.7 1013.3 0.0
19/02:30pm 31.6 25.6 8.7 24 13.1 SSE 30 48 16 26 1017.0 1013.6 0.0
19/02:28pm 31.2 25.2 8.8 25 12.8 SSE 30 48 16 26 1017.0 1013.6 0.0
19/02:00pm 30.6 24.7 9.1 26 12.3 SSE 30 41 16 22 1017.4 1013.9 0.0
19/01:30pm 29.5 24.1 9.4 28 11.5 SE 28 41 15 22 1017.5 1014.0 0.0
19/01:00pm 29.3 24.3 9.4 29 11.4 SSE 26 37 14 20 1017.9 1014.5 0.0
19/12:30pm 28.9 23.4 9.0 28 11.3 SSE 28 39 15 21 1018.1 1014.7 0.0
19/12:00pm 28.4 22.9 9.2 30 10.9 SE 28 41 15 22 1018.4 1015.0 0.0
19/11:30am 27.2 21.7 9.1 32 10.2 SE 28 41 15 22 1018.8 1015.4 0.0
19/11:00am 28.0 22.2 9.3 31 10.6 SE 30 48 16 26 1018.9 1015.5 0.0
19/10:30am 27.0 21.2 9.5 33 9.9 SE 30 44 16 24 1018.9 1015.5 0.0
19/10:00am 26.1 20.0 9.7 35 9.3 SE 32 43 17 23 1018.7 1015.3 0.0
19/09:30am 25.3 20.2 10.6 39 8.4 SE 28 43 15 23 1018.7 1015.3 0.0
19/09:00am 24.2 18.7 10.7 42 7.7 SSE 30 37 16 20 1018.5 1015.1 0.0
19/08:30am 23.2 17.7 10.5 44 7.2 SSE 30 41 16 22 1018.2 1014.8 0.0
19/08:00am 22.1 17.1 10.8 48 6.4 SSE 28 37 15 20 1017.9 1014.5 0.0
19/07:30am 23.6 18.0 8.9 39 8.1 SE 28 43 15 23 1017.3 1013.8 0.0
19/07:00am 22.7 17.2 9.1 42 7.5 SE 28 37 15 20 1016.8 1013.4 0.0
19/06:30am 22.9 17.7 8.9 40 7.7 SE 26 39 14 21 1016.4 1013.0 0.0
19/06:00am 23.1 18.8 9.2 41 7.7 SE 22 30 12 16 1016.0 1012.5 0.0
19/05:30am 23.1 18.2 9.9 43 7.4 SE 26 33 14 18 1015.4 1012.0 0.0
19/05:00am 23.0 19.3 10.2 44 7.2 SSE 20 30 11 16 1015.4 1012.0 0.0
19/04:30am 23.2 18.0 10.3 44 7.3 S 28 39 15 21 1014.7 1011.3 0.0
19/04:00am 23.1 19.8 10.8 45 7.0 SSE 19 28 10 15 1015.0 1011.6 0.0
19/03:30am 23.0 19.1 10.9 46 6.9 SSE 22 32 12 17 1014.6 1011.1 0.0
19/03:00am 23.5 18.8 10.5 43 7.4 SSE 26 37 14 20 1014.7 1011.3 0.0
19/02:30am 24.0 19.5 10.0 41 7.9 SSE 24 35 13 19 1014.8 1011.4 0.0
19/02:00am 24.5 19.9 9.8 39 8.3 S 24 32 13 17 1015.0 1011.6 0.0
19/01:30am 24.8 20.3 10.2 39 8.3 S 24 37 13 20 1015.1 1011.7 0.0
19/01:00am 25.1 21.7 11.1 41 8.1 S 20 35 11 19 1015.7 1012.2 0.0
19/12:30am 25.4 21.8 11.7 42 8.0 S 22 30 12 16 1015.8 1012.3 0.0
19/12:00am 25.9 22.8 12.2 42 8.1 S 20 32 11 17 1015.9 1012.4 0.0
 
Date/Time
CST
Temp
°C
App
Temp
°C
Dew
Point
°C
Rel
Hum
%
Delta-T
°C
Wind Press
QNH
hPa
Press
MSL
hPa
Rain since
9am
mm
Dir  Spd
km/h
Gust
km/h
Spd
kts
Gust
kts
18/11:30pm 26.9 23.3 10.4 35 9.5 S 20 30 11 16 1015.9 1012.4 0.0
18/11:00pm 28.2 24.5 7.8 27 11.3 S 17 24 9 13 1015.6 1012.1 0.0
18/10:30pm 28.7 24.9 7.6 26 11.7 S 17 28 9 15 1015.3 1011.9 0.0
18/10:00pm 29.1 26.0 7.4 25 12.0 SSW 13 17 7 9 1015.0 1011.6 0.0
18/09:30pm 30.2 25.9 6.8 23 12.9 SSW 19 24 10 13 1014.3 1010.8 0.0
18/09:00pm 29.9 25.0 8.6 26 12.1 S 24 32 13 17 1013.8 1010.3 0.0
18/08:30pm 31.8 26.9 5.3 19 14.4 SSW 20 32 11 17 1013.1 1009.6 0.0
18/08:00pm 30.8 28.3 6.5 21 13.4 NE 9 19 5 10 1012.1 1008.6 0.0
18/07:30pm 32.1 30.0 6.8 20 14.1 NNE 7 9 4 5 1011.4 1007.9 0.0
18/07:00pm 32.9 30.1 5.2 17 15.1 N 9 11 5 6 1011.0 1007.5 0.0
18/06:30pm 34.3 31.9 4.2 15 16.3 N 6 11 3 6 1010.7 1007.2 0.0
18/06:00pm 35.5 30.2 -0.5 10 18.2 N 17 24 9 13 1010.3 1006.8 0.0
18/05:30pm 36.5 31.6 -0.4 9 18.8 N 15 22 8 12 1010.0 1006.5 0.0
18/05:00pm 36.7 32.3 0.6 10 18.7 N 13 19 7 10 1009.9 1006.4 0.0
18/04:30pm 37.6 32.6 -0.9 9 19.6 NW 15 28 8 15 1010.2 1006.7 0.0
18/04:00pm 37.8 31.9 -0.8 9 19.7 N 20 35 11 19 1010.3 1006.8 0.0
18/03:30pm 37.1 31.2 -1.0 9 19.3 NNW 20 30 11 16 1010.3 1006.8 0.0
18/03:00pm 37.2 31.8 -1.2 9 19.4 N 17 28 9 15 1010.6 1007.1 0.0
18/02:30pm 37.9 31.1 -1.5 8 19.9 N 24 35 13 19 1010.8 1007.3 0.0
18/02:00pm 36.6 30.4 -0.6 9 18.9 NNW 22 35 12 19 1011.2 1007.7 0.0
18/01:30pm 35.9 29.8 -2.2 9 18.8 N 20 32 11 17 1011.6 1008.2 0.0
18/01:00pm 36.1 28.6 -1.6 9 18.8 N 28 41 15 22 1012.1 1008.6 0.0
18/12:30pm 34.9 26.5 -2.3 9 18.2 NNW 32 43 17 23 1012.6 1009.1 0.0
18/12:00pm 34.8 26.4 -2.7 9 18.2 N 32 46 17 25 1012.8 1009.3 0.0
18/11:30am 34.3 26.2 -3.2 9 18.0 N 30 39 16 21 1013.0 1009.5 0.0
18/11:00am 33.8 27.3 -2.2 10 17.5 NNE 22 35 12 19 1013.6 1010.2 0.0
18/10:30am 32.2 24.1 -3.5 10 16.8 N 30 39 16 21 1013.6 1010.2 0.0
18/10:00am 31.7 23.9 -3.5 10 16.5 N 28 39 15 21 1013.9 1010.4 0.0
18/09:30am 30.5 22.1 -2.5 11 15.6 N 32 43 17 23 1013.5 1010.1 0.0
18/09:00am 29.4 21.2 -1.3 13 14.7 N 32 43 17 23 1013.5 1010.1 0.0
18/08:30am 29.0 20.5 -3.3 12 14.9 N 32 43 17 23 1013.3 1009.9 0.0
18/08:25am 28.7 21.4 -3.2 12 14.7 N 26 43 14 23 1013.2 1009.8 0.0
18/08:00am 27.9 22.9 -1.2 15 13.8 N 15 22 8 12 1013.1 1009.6 0.0
18/07:30am 26.2 21.9 1.0 19 12.3 NNW 13 19 7 10 1012.9 1009.4 0.0
18/07:00am 24.3 21.2 3.4 25 10.5 WNW 9 11 5 6 1012.5 1009.0 0.0
18/06:30am 22.8 20.9 4.8 31 9.2 WNW 4 9 2 5 1012.1 1008.6 0.0
18/06:00am 23.8 21.1 3.8 27 10.1 WNW 7 11 4 6 1011.6 1008.2 0.0
18/05:30am 24.9 21.8 3.6 25 10.8 SW 9 13 5 7 1011.2 1007.7 0.0
18/05:00am 26.1 23.2 2.6 21 11.8 ESE 7 9 4 5 1010.9 1007.4 0.0
18/04:30am 26.4 23.9 3.5 23 11.7 SE 6 9 3 5 1010.7 1007.2 0.0
18/04:00am 26.2 23.6 4.4 24 11.3 SSW 7 13 4 7 1010.5 1007.0 0.0
18/03:30am 25.4 23.2 5.4 27 10.5 W 6 13 3 7 1010.4 1006.9 0.0
18/03:00am 25.2 23.1 6.0 29 10.2 NE 6 11 3 6 1009.9 1006.4 0.0
18/02:30am 25.1 22.4 5.5 28 10.3 ESE 9 11 5 6 1010.0 1006.5 0.0
18/02:00am 25.0 22.7 5.9 29 10.1 ESE 7 7 4 4 1010.3 1006.8 0.0
18/01:30am 26.8 23.9 6.7 28 10.9 NNE 11 15 6 8 1010.6 1007.1 0.0
18/01:00am 28.1 24.3 3.9 21 12.6 NNE 13 17 7 9 1010.7 1007.2 0.0
18/12:30am 27.3 24.5 5.2 24 11.7 NNE 9 11 5 6 1011.1 1007.6 0.0
18/12:00am 26.9 24.0 6.3 27 11.1 NNE 11 13 6 7 1011.3 1007.8 0.0
 
Date/Time
CST
Temp
°C
App
Temp
°C
Dew
Point
°C
Rel
Hum
%
Delta-T
°C
Wind Press
QNH
hPa
Press
MSL
hPa
Rain since
9am
mm
Dir  Spd
km/h
Gust
km/h
Spd
kts
Gust
kts
17/11:30pm 25.9 23.8 6.8 29 10.3 NE 7 11 4 6 1011.4 1007.9 0.0
17/11:00pm 25.7 23.7 7.3 31 10.0 NE 7 9 4 5 1011.6 1008.2 0.0
17/10:30pm 28.0 25.0 5.8 24 11.9 NE 11 13 6 7 1011.7 1008.3 0.0
17/10:00pm 28.9 26.0 6.3 24 12.3 NE 11 13 6 7 1011.7 1008.3 0.0
17/09:30pm 28.5 26.1 7.0 25 11.8 NE 9 11 5 6 1011.7 1008.3 0.0
17/09:00pm 29.4 26.9 6.6 23 12.5 NE 9 11 5 6 1011.5 1008.0 0.0
17/08:30pm 29.7 27.2 6.5 23 12.7 NNE 9 11 5 6 1011.3 1007.8 0.0
17/08:00pm 29.9 26.6 6.3 22 12.9 NE 13 15 7 8 1010.9 1007.4 0.0
17/07:30pm 31.1 28.5 6.1 21 13.7 NE 9 13 5 7 1010.6 1007.1 0.0
17/07:00pm 32.5 29.4 5.4 18 14.8 NE 11 13 6 7 1010.3 1006.8 0.0
17/06:30pm 34.0 30.0 3.1 14 16.4 NNE 13 19 7 10 1009.9 1006.4 0.0
17/06:00pm 34.9 30.7 1.4 12 17.4 N 13 19 7 10 1009.6 1006.1 0.0
17/05:30pm 35.2 31.3 0.9 11 17.7 NNE 11 17 6 9 1009.5 1006.0 0.0

Other Formats:

Comma delimited format used in spreadsheet applications
http://www.bom.gov.au/fwo/IDD60801/IDD60801.94461.axf

JavaScript Object Notation format (JSON) in row-major order
http://www.bom.gov.au/fwo/IDD60801/IDD60801.94461.json